Time;durP1;ratioP1;P1;durP2;ratioP2;P2;SDS_P1;SDS_P2;PMS_P1;PMS_P2;Temp;Humidity;BMP_temperature;BMP_pressure;BME280_temperature;BME280_humidity;BME280_pressure;Samples;Min_cycle;Max_cycle;Signal;HPM_P1;HPM_P2
2021/06/15 00:00:24;;;;;;;5.10;2.90;;;15.10;99.90;;;;;;21247499;27;20039;-76
2021/06/15 00:10:26;;;;;;;4.70;2.70;;;15.10;99.90;;;;;;21246638;27;20031;-76
2021/06/15 00:20:27;;;;;;;4.13;2.50;;;14.70;99.90;;;;;;21245994;27;20039;-75
2021/06/15 00:30:28;;;;;;;5.53;2.30;;;14.70;99.90;;;;;;21226747;27;20085;-76
2021/06/15 00:40:29;;;;;;;11.43;2.87;;;14.60;99.90;;;;;;21226409;27;20031;-75
2021/06/15 00:50:30;;;;;;;6.00;3.27;;;14.40;99.90;;;;;;21225394;27;20447;-76
2021/06/15 01:00:31;;;;;;;4.83;2.90;;;14.30;99.90;;;;;;21224250;27;20035;-76
2021/06/15 01:10:54;;;;;;;11.27;2.92;;;14.30;99.90;;;;;;21224425;28;20514;-76
2021/06/15 01:21:02;;;;;;;7.13;3.22;;;14.20;99.90;;;;;;21224373;28;20520;-76
2021/06/15 01:31:09;;;;;;;6.75;2.63;;;14.10;99.90;;;;;;21242309;28;20559;-75
2021/06/15 01:41:13;;;;;;;5.93;3.20;;;14.10;99.90;;;;;;21241435;28;20059;-75
2021/06/15 01:51:18;;;;;;;11.63;3.45;;;13.80;99.90;;;;;;21222986;28;20047;-75
2021/06/15 02:01:21;;;;;;;7.78;2.83;;;13.70;99.90;;;;;;21222593;28;20038;-75
2021/06/15 02:11:30;;;;;;;3.85;2.90;;;13.60;99.90;;;;;;21228568;27;20062;-75
2021/06/15 02:22:13;;;;;;;6.88;2.95;;;13.50;99.90;;;;;;21255962;27;20035;-76
2021/06/15 02:32:21;;;;;;;8.77;3.03;;;13.40;99.90;;;;;;21236931;27;20456;-75
2021/06/15 02:42:23;;;;;;;7.05;3.17;;;13.30;99.90;;;;;;21220108;27;20032;-76
2021/06/15 02:52:51;;;;;;;5.82;3.28;;;13.10;99.90;;;;;;21149225;27;20040;-76
2021/06/15 03:02:53;;;;;;;5.95;3.50;;;13.00;99.90;;;;;;21175749;27;20035;-76
2021/06/15 03:13:05;;;;;;;5.63;3.58;;;13.00;99.90;;;;;;21225997;27;20122;-76
2021/06/15 03:23:17;;;;;;;7.38;3.67;;;12.80;99.90;;;;;;21229641;27;20084;-76
2021/06/15 03:33:21;;;;;;;5.85;3.25;;;12.60;99.90;;;;;;21231788;27;20047;-75
2021/06/15 03:43:27;;;;;;;5.53;2.97;;;12.80;99.90;;;;;;21213846;27;20042;-76
2021/06/15 03:53:31;;;;;;;5.25;2.80;;;13.40;99.90;;;;;;21248118;27;20039;-77
2021/06/15 04:03:37;;;;;;;3.75;2.95;;;13.70;99.90;;;;;;21247214;27;20039;-74
2021/06/15 04:13:41;;;;;;;4.53;3.00;;;13.20;99.90;;;;;;21246592;27;20152;-74
2021/06/15 04:23:53;;;;;;;6.32;3.28;;;12.90;99.90;;;;;;21226891;27;20046;-74
2021/06/15 04:33:55;;;;;;;5.93;3.65;;;13.20;99.90;;;;;;21244593;27;20058;-73
2021/06/15 04:44:02;;;;;;;7.65;3.78;;;13.40;99.90;;;;;;21243858;27;20042;-73
2021/06/15 04:54:04;;;;;;;9.73;4.75;;;14.00;99.90;;;;;;21243443;27;20047;-73
2021/06/15 05:04:07;;;;;;;8.45;4.00;;;14.50;99.90;;;;;;21224577;27;20094;-74
2021/06/15 05:14:11;;;;;;;6.15;3.53;;;15.00;99.90;;;;;;21207603;28;20047;-76
2021/06/15 05:24:43;;;;;;;7.82;3.83;;;15.40;99.90;;;;;;21241993;28;20573;-76
2021/06/15 05:34:44;;;;;;;10.57;4.30;;;16.00;99.90;;;;;;21242310;28;20450;-76
2021/06/15 05:44:45;;;;;;;6.20;3.17;;;16.30;99.90;;;;;;21212616;27;20040;-76
2021/06/15 05:54:46;;;;;;;5.40;3.30;;;16.80;99.90;;;;;;21172133;28;20047;-75
2021/06/15 06:14:54;;;;;;;6.63;3.15;;;17.80;99.90;;;;;;21153272;28;20130;-74
2021/06/15 06:24:55;;;;;;;9.98;3.45;;;18.10;99.90;;;;;;21170849;28;20691;-74
2021/06/15 06:34:56;;;;;;;6.60;3.80;;;18.30;99.90;;;;;;21153074;28;20059;-75
2021/06/15 06:44:57;;;;;;;6.43;3.10;;;19.10;99.90;;;;;;21151205;28;20067;-75
2021/06/15 06:54:58;;;;;;;6.10;2.67;;;19.50;99.90;;;;;;21167279;28;20425;-75
2021/06/15 07:04:59;;;;;;;8.93;3.63;;;19.90;99.90;;;;;;21167360;28;20039;-75
2021/06/15 07:14:59;;;;;;;4.83;2.63;;;20.30;99.90;;;;;;21147990;28;20039;-75
2021/06/15 07:25:01;;;;;;;9.83;2.83;;;20.90;99.90;;;;;;21166297;28;20036;-74
2021/06/15 07:35:02;;;;;;;7.30;2.55;;;21.50;99.90;;;;;;21146525;28;20084;-75
2021/06/15 07:45:04;;;;;;;4.18;2.25;;;22.20;99.90;;;;;;21164304;28;20059;-75
2021/06/15 07:55:06;;;;;;;2.45;1.95;;;22.70;99.90;;;;;;21168084;28;20043;-77
2021/06/15 08:05:07;;;;;;;5.80;2.08;;;23.60;99.90;;;;;;21146017;28;20035;-76
2021/06/15 08:15:08;;;;;;;3.58;1.92;;;24.30;99.90;;;;;;21143903;28;20573;-75
2021/06/15 08:25:10;;;;;;;6.25;2.60;;;24.20;99.90;;;;;;21162893;28;20463;-75
2021/06/15 08:35:11;;;;;;;12.57;2.58;;;25.20;99.90;;;;;;21127256;28;20189;-74
2021/06/15 08:45:14;;;;;;;6.47;2.25;;;25.50;99.90;;;;;;21143159;28;20046;-75
2021/06/15 08:55:17;;;;;;;5.30;2.20;;;25.90;99.90;;;;;;21159460;28;20032;-75
2021/06/15 09:05:18;;;;;;;2.63;1.80;;;26.30;99.90;;;;;;21159085;28;20114;-75
2021/06/15 09:15:21;;;;;;;10.15;1.75;;;27.40;99.90;;;;;;21157860;28;20058;-75
2021/06/15 09:25:24;;;;;;;3.08;1.92;;;28.00;99.90;;;;;;21171957;28;20118;-75
2021/06/15 09:35:32;;;;;;;7.55;2.10;;;27.50;99.90;;;;;;21178171;28;20035;-75
2021/06/15 09:45:33;;;;;;;6.30;2.08;;;28.10;99.90;;;;;;21178312;28;20039;-76
2021/06/15 09:55:45;;;;;;;4.57;1.40;;;29.40;99.90;;;;;;21179218;28;20486;-75
2021/06/15 10:05:47;;;;;;;5.90;2.03;;;29.70;99.90;;;;;;21155293;28;20044;-75
2021/06/15 10:15:49;;;;;;;4.82;1.90;;;29.20;99.90;;;;;;21157626;28;20582;-76
2021/06/15 10:25:50;;;;;;;4.50;1.92;;;30.00;99.90;;;;;;21174286;28;20420;-76
2021/06/15 10:35:54;;;;;;;3.85;2.05;;;30.20;99.90;;;;;;21154740;28;20043;-76
2021/06/15 10:46:01;;;;;;;5.47;2.15;;;30.70;99.90;;;;;;21171267;28;20035;-76
2021/06/15 10:56:07;;;;;;;2.65;1.40;;;31.40;99.60;;;;;;21157854;28;20046;-75
2021/06/15 11:06:08;;;;;;;6.40;1.55;;;31.90;98.30;;;;;;21168095;28;20127;-76
2021/06/15 11:16:37;;;;;;;3.25;1.50;;;31.40;97.50;;;;;;21182238;27;20054;-75
2021/06/15 11:26:37;;;;;;;6.45;1.48;;;30.80;99.70;;;;;;21249581;27;20031;-76
2021/06/15 11:36:52;;;;;;;1.90;1.35;;;30.20;98.80;;;;;;21254649;27;20092;-75
2021/06/15 11:47:22;;;;;;;2.72;1.50;;;30.90;96.30;;;;;;21250100;27;20122;-76
2021/06/15 11:57:22;;;;;;;2.83;1.50;;;31.00;97.70;;;;;;21235402;27;20382;-75
2021/06/15 12:07:23;;;;;;;2.65;1.50;;;30.90;94.30;;;;;;21233913;27;20059;-76
2021/06/15 12:17:24;;;;;;;5.95;2.25;;;30.30;94.80;;;;;;21234148;27;20474;-76
2021/06/15 12:27:25;;;;;;;3.67;1.65;;;30.20;94.30;;;;;;21236438;27;20039;-76
2021/06/15 12:37:39;;;;;;;3.15;1.77;;;30.00;95.70;;;;;;21233650;27;20039;-76
2021/06/15 12:47:44;;;;;;;3.13;1.60;;;30.20;94.80;;;;;;21250510;27;20035;-75
2021/06/15 12:57:56;;;;;;;2.92;1.95;;;30.30;99.90;;;;;;21215715;27;20031;-76
2021/06/15 13:07:58;;;;;;;3.97;1.80;;;30.20;99.90;;;;;;21250142;27;20031;-76
2021/06/15 13:18:04;;;;;;;5.43;2.17;;;30.00;99.90;;;;;;21250630;28;20035;-75
2021/06/15 13:28:12;;;;;;;6.68;2.55;;;30.00;99.80;;;;;;21232267;28;20050;-76
2021/06/15 13:38:20;;;;;;;7.18;2.03;;;29.90;99.90;;;;;;21196865;28;20099;-76
2021/06/15 13:48:22;;;;;;;7.38;2.20;;;29.20;99.90;;;;;;21200583;28;20047;-76
2021/06/15 13:58:23;;;;;;;1.83;1.50;;;29.10;99.40;;;;;;21108891;28;20040;-76
2021/06/15 14:08:23;;;;;;;2.78;1.88;;;30.00;99.90;;;;;;21133746;28;20050;-75
2021/06/15 14:18:24;;;;;;;5.25;1.60;;;30.00;98.00;;;;;;21143243;28;20122;-76
2021/06/15 14:28:26;;;;;;;3.45;1.85;;;30.30;96.40;;;;;;21161205;27;20047;-76
2021/06/15 14:38:27;;;;;;;5.03;1.70;;;29.90;97.00;;;;;;21227304;27;20037;-75
2021/06/15 14:48:28;;;;;;;8.85;1.80;;;30.20;96.80;;;;;;21221751;27;20043;-75
2021/06/15 14:58:28;;;;;;;4.78;1.50;;;29.80;98.30;;;;;;21224802;27;20118;-75
2021/06/15 15:08:29;;;;;;;3.33;1.88;;;30.10;98.10;;;;;;21177608;27;20054;-75
2021/06/15 15:18:31;;;;;;;3.17;1.90;;;29.90;96.40;;;;;;21219474;27;20896;-75
2021/06/15 15:28:32;;;;;;;3.10;1.50;;;30.10;96.90;;;;;;21200314;27;20416;-74
2021/06/15 15:38:33;;;;;;;10.68;2.28;;;29.90;95.60;;;;;;21237311;27;20096;-74
2021/06/15 15:48:36;;;;;;;1.88;1.30;;;29.40;95.10;;;;;;21231647;27;20031;-73
2021/06/15 15:58:39;;;;;;;5.30;1.15;;;29.30;94.10;;;;;;21235058;27;20045;-73
2021/06/15 16:08:40;;;;;;;6.65;1.20;;;29.20;91.30;;;;;;21222102;27;20485;-75
2021/06/15 16:18:41;;;;;;;1.95;1.05;;;29.10;89.90;;;;;;21191656;27;20046;-74
2021/06/15 16:28:42;;;;;;;4.80;1.55;;;29.00;89.30;;;;;;21170516;27;20062;-75
2021/06/15 16:38:43;;;;;;;1.45;1.10;;;28.80;91.10;;;;;;21171765;27;20066;-74
2021/06/15 16:48:44;;;;;;;6.18;1.20;;;28.80;89.80;;;;;;21137969;27;20611;-74
2021/06/15 16:58:45;;;;;;;6.50;1.20;;;28.60;84.00;;;;;;21166246;27;20339;-74
2021/06/15 17:08:46;;;;;;;2.95;1.80;;;28.60;88.30;;;;;;21178506;27;20420;-74
2021/06/15 17:18:47;;;;;;;4.15;1.40;;;28.50;92.00;;;;;;21215892;27;20370;-75
2021/06/15 17:28:48;;;;;;;2.88;1.85;;;28.40;93.90;;;;;;21224351;28;20051;-74
2021/06/15 17:38:49;;;;;;;4.10;2.03;;;28.20;93.70;;;;;;21211619;27;20182;-74
2021/06/15 17:48:50;;;;;;;3.22;1.40;;;28.10;94.30;;;;;;21248241;27;20043;-74
2021/06/15 17:58:55;;;;;;;3.72;1.38;;;28.20;94.70;;;;;;21252618;27;20116;-73
2021/06/15 18:09:03;;;;;;;3.72;1.50;;;29.10;94.00;;;;;;21248391;27;20043;-73
2021/06/15 18:19:04;;;;;;;3.00;1.67;;;29.50;94.60;;;;;;21214728;27;20054;-74
2021/06/15 18:29:06;;;;;;;10.68;1.83;;;29.80;94.10;;;;;;21187195;27;20047;-74
2021/06/15 18:39:07;;;;;;;7.90;1.83;;;29.10;98.90;;;;;;21144615;28;20044;-74
2021/06/15 18:49:08;;;;;;;18.67;2.25;;;28.20;99.70;;;;;;21200047;27;20525;-75
2021/06/15 18:59:10;;;;;;;4.07;2.20;;;25.60;99.90;;;;;;21145882;28;20047;-75
2021/06/15 19:09:11;;;;;;;3.28;2.17;;;24.50;99.90;;;;;;21145726;28;20040;-75
2021/06/15 19:19:12;;;;;;;7.07;2.47;;;23.90;99.90;;;;;;21157608;28;20047;-74
2021/06/15 19:29:13;;;;;;;7.20;2.53;;;23.20;99.90;;;;;;21200040;27;20043;-74
2021/06/15 19:39:14;;;;;;;2.63;2.10;;;22.50;99.90;;;;;;21221675;27;20527;-74
2021/06/15 19:49:16;;;;;;;7.00;2.73;;;22.10;99.90;;;;;;21220673;27;20501;-74
2021/06/15 19:59:17;;;;;;;3.25;2.20;;;21.60;99.90;;;;;;21200107;27;20104;-76
2021/06/15 20:09:17;;;;;;;3.70;3.00;;;21.20;99.90;;;;;;21226832;27;20047;-75
2021/06/15 20:19:22;;;;;;;7.80;2.50;;;20.70;99.90;;;;;;21226941;27;20496;-75
2021/06/15 20:29:23;;;;;;;7.95;2.75;;;20.50;99.90;;;;;;21159466;27;20035;-75
2021/06/15 20:39:24;;;;;;;5.13;2.67;;;20.30;99.90;;;;;;21139964;28;20093;-76
2021/06/15 20:49:25;;;;;;;5.60;2.30;;;19.80;99.90;;;;;;21120877;28;20416;-76
2021/06/15 20:59:26;;;;;;;3.63;2.47;;;19.50;99.90;;;;;;21152023;27;20489;-73
2021/06/15 21:09:26;;;;;;;4.30;1.90;;;19.30;99.90;;;;;;21178987;27;20096;-75
2021/06/15 21:19:27;;;;;;;4.73;2.37;;;19.10;99.90;;;;;;21185775;27;20084;-76
2021/06/15 21:29:28;;;;;;;5.33;2.13;;;18.90;99.90;;;;;;21175390;28;20558;-76
2021/06/15 21:39:29;;;;;;;4.70;2.00;;;18.60;99.90;;;;;;21148697;28;20032;-75
2021/06/15 21:49:30;;;;;;;4.97;2.50;;;18.50;99.90;;;;;;21145817;23;20045;-77
2021/06/15 21:59:31;;;;;;;2.80;2.07;;;18.30;99.90;;;;;;20977371;28;20113;-79
2021/06/15 22:09:32;;;;;;;3.83;2.20;;;18.00;99.90;;;;;;21000106;28;20433;-79
2021/06/15 22:19:33;;;;;;;4.37;2.47;;;17.80;99.90;;;;;;21005857;28;20130;-78
2021/06/15 22:29:34;;;;;;;4.00;2.63;;;17.50;99.90;;;;;;21030105;28;20062;-79
2021/06/15 22:39:35;;;;;;;3.70;2.30;;;17.20;99.90;;;;;;21022708;28;20047;-79
2021/06/15 22:49:35;;;;;;;4.73;2.80;;;17.00;99.90;;;;;;21025649;28;20043;-79
2021/06/15 22:59:37;;;;;;;8.60;3.07;;;16.60;99.90;;;;;;21023907;28;20051;-79
2021/06/15 23:09:38;;;;;;;4.22;2.92;;;16.70;99.90;;;;;;21040009;28;20051;-79
2021/06/15 23:19:39;;;;;;;5.77;2.73;;;16.70;99.90;;;;;;21018554;28;20037;-79
2021/06/15 23:29:40;;;;;;;5.47;2.80;;;16.50;99.90;;;;;;21004738;28;20064;-79
2021/06/15 23:39:41;;;;;;;9.33;2.70;;;16.40;99.90;;;;;;20936723;28;20049;-78
2021/06/15 23:49:42;;;;;;;4.93;2.83;;;16.20;99.90;;;;;;21013112;28;20056;-79
2021/06/15 23:59:42;;;;;;;5.90;3.00;;;15.80;99.90;;;;;;21032872;28;20051;-79
